createdAt,value
2019-03-21T00:02:27.571Z,99.90
2019-03-21T00:05:00.693Z,99.90
2019-03-21T00:07:33.979Z,99.80
2019-03-21T00:10:21.663Z,99.80
2019-03-21T00:13:05.096Z,99.50
2019-03-21T00:15:49.216Z,99.60
2019-03-21T00:18:22.326Z,99.60
2019-03-21T00:20:55.756Z,99.70
2019-03-21T00:23:29.762Z,99.90
2019-03-21T00:26:02.893Z,99.80
2019-03-21T00:28:36.126Z,99.50
2019-03-21T00:31:09.589Z,99.90
2019-03-21T00:33:42.814Z,99.50
2019-03-21T00:36:21.087Z,99.60
2019-03-21T00:38:53.731Z,99.90
2019-03-21T00:41:27.165Z,99.90
2019-03-21T00:44:00.913Z,99.90
2019-03-21T00:46:33.662Z,99.90
2019-03-21T00:49:07.410Z,99.30
2019-03-21T00:51:40.386Z,99.90
2019-03-21T00:54:12.981Z,99.90
2019-03-21T00:56:45.699Z,99.90
2019-03-21T00:59:18.980Z,99.20
2019-03-21T01:01:51.890Z,99.20
2019-03-21T01:04:27.339Z,99.10
2019-03-21T01:07:01.185Z,99.10
2019-03-21T01:09:35.401Z,99.90
2019-03-21T01:12:08.267Z,99.90
2019-03-21T01:14:41.406Z,99.90
2019-03-21T01:17:14.631Z,99.30
2019-03-21T01:19:47.690Z,99.60
2019-03-21T01:22:20.766Z,99.90
2019-03-21T01:24:53.679Z,99.90
2019-03-21T01:27:26.600Z,99.90
2019-03-21T01:29:59.573Z,99.90
2019-03-21T01:32:32.770Z,99.90
2019-03-21T01:35:06.715Z,99.90
2019-03-21T01:37:39.621Z,99.00
2019-03-21T01:40:15.317Z,98.90
2019-03-21T01:42:47.899Z,99.60
2019-03-21T01:45:23.557Z,99.90
2019-03-21T01:47:57.574Z,99.90
2019-03-21T01:50:33.022Z,98.80
2019-03-21T01:53:07.680Z,99.30
2019-03-21T01:55:41.371Z,98.30
2019-03-21T01:58:14.769Z,99.00
2019-03-21T02:00:54.452Z,98.50
2019-03-21T02:03:27.710Z,98.30
2019-03-21T02:06:01.411Z,99.40
2019-03-21T02:08:34.615Z,98.50
2019-03-21T02:11:38.613Z,98.20
2019-03-21T02:14:11.046Z,97.90
2019-03-21T02:16:45.028Z,97.20
2019-03-21T02:19:17.991Z,96.80
2019-03-21T02:21:52.476Z,96.50
2019-03-21T02:24:28.870Z,96.20
2019-03-21T02:27:04.278Z,96.20
2019-03-21T02:29:37.253Z,94.80
2019-03-21T02:32:10.974Z,96.10
2019-03-21T02:34:44.745Z,94.40
2019-03-21T02:37:17.827Z,93.30
2019-03-21T02:40:00.001Z,92.70
2019-03-21T02:42:31.022Z,94.60
2019-03-21T02:45:09.040Z,92.90
2019-03-21T02:47:40.101Z,94.80
2019-03-21T02:50:19.230Z,94.60
2019-03-21T02:52:52.631Z,92.30
2019-03-21T02:55:26.043Z,91.00
2019-03-21T02:58:01.482Z,90.90
2019-03-21T03:00:43.141Z,90.80
2019-03-21T03:03:18.220Z,90.80
2019-03-21T03:05:53.266Z,90.70
2019-03-21T03:08:27.070Z,93.40
2019-03-21T03:11:02.088Z,90.40
2019-03-21T03:13:35.727Z,90.40
2019-03-21T03:16:09.295Z,90.40
2019-03-21T03:18:43.221Z,92.90
2019-03-21T03:21:16.131Z,91.90
2019-03-21T03:23:49.595Z,91.40
2019-03-21T03:26:24.182Z,90.90
2019-03-21T03:29:17.563Z,93.30
2019-03-21T03:31:51.032Z,93.40
2019-03-21T03:34:24.168Z,93.40
2019-03-21T03:36:57.276Z,93.40
2019-03-21T03:39:31.538Z,93.20
2019-03-21T03:42:05.013Z,92.20
2019-03-21T03:44:38.028Z,93.30
2019-03-21T03:47:12.534Z,91.30
2019-03-21T03:49:45.903Z,93.30
2019-03-21T03:52:19.171Z,93.40
2019-03-21T03:54:52.739Z,93.20
2019-03-21T03:57:26.149Z,93.00
2019-03-21T03:59:58.975Z,91.20
2019-03-21T04:02:32.893Z,90.50
2019-03-21T04:05:07.013Z,92.40
2019-03-21T04:07:40.770Z,92.40
2019-03-21T04:10:16.284Z,92.50
2019-03-21T04:12:49.070Z,92.30
2019-03-21T04:15:23.013Z,92.60
2019-03-21T04:17:55.755Z,90.60
2019-03-21T04:20:34.353Z,92.10
2019-03-21T04:23:08.718Z,88.30
2019-03-21T04:26:03.555Z,89.20
2019-03-21T04:28:37.087Z,87.50
2019-03-21T04:31:10.719Z,88.00
2019-03-21T04:33:45.564Z,91.70
2019-03-21T04:36:19.360Z,91.80
2019-03-21T04:38:53.175Z,91.40
2019-03-21T04:41:29.314Z,88.30
2019-03-21T04:44:03.225Z,92.00
2019-03-21T04:46:40.734Z,92.00
2019-03-21T04:49:13.861Z,91.70
2019-03-21T04:51:47.424Z,91.60
2019-03-21T04:54:21.238Z,91.30
2019-03-21T04:56:54.514Z,91.50
2019-03-21T04:59:28.168Z,91.30
2019-03-21T05:02:01.389Z,90.90
2019-03-21T05:04:34.483Z,90.90
2019-03-21T05:07:07.601Z,90.30
2019-03-21T05:09:40.473Z,89.90
2019-03-21T05:12:14.091Z,90.80
2019-03-21T05:14:47.148Z,85.20
2019-03-21T05:17:20.325Z,89.10
2019-03-21T05:19:53.446Z,83.60
2019-03-21T05:22:27.270Z,89.70
2019-03-21T05:25:00.006Z,83.90
2019-03-21T05:27:33.649Z,88.20
2019-03-21T05:30:21.610Z,85.90
2019-03-21T05:32:54.779Z,89.20
2019-03-21T05:35:27.922Z,87.60
2019-03-21T05:38:04.425Z,86.90
2019-03-21T05:40:38.916Z,76.60
2019-03-21T05:43:32.918Z,85.50
2019-03-21T05:46:06.747Z,77.00
2019-03-21T05:48:39.635Z,82.40
2019-03-21T05:51:33.385Z,85.50
2019-03-21T05:54:06.818Z,73.80
2019-03-21T05:56:39.950Z,73.30
2019-03-21T05:59:13.641Z,80.10
2019-03-21T06:01:47.830Z,69.00
2019-03-21T06:04:21.231Z,80.10
2019-03-21T06:07:02.807Z,81.80
2019-03-21T06:09:36.281Z,74.60
2019-03-21T06:12:10.230Z,75.90
2019-03-21T06:14:58.599Z,72.40
2019-03-21T06:17:33.045Z,80.60
2019-03-21T06:20:08.853Z,67.50
2019-03-21T06:22:50.500Z,67.60
2019-03-21T06:25:44.977Z,66.10
2019-03-21T06:28:19.064Z,65.60
2019-03-21T06:30:53.754Z,69.20
2019-03-21T06:33:30.564Z,74.10
2019-03-21T06:36:08.427Z,65.80
2019-03-21T06:39:04.396Z,65.10
2019-03-21T06:41:43.300Z,74.60
2019-03-21T06:44:19.580Z,72.30
2019-03-21T06:46:52.047Z,75.50
2019-03-21T06:49:25.594Z,73.30
2019-03-21T06:51:59.265Z,60.50
2019-03-21T06:54:35.947Z,63.50
2019-03-21T06:57:08.738Z,71.50
2019-03-21T06:59:42.128Z,70.10
2019-03-21T07:02:14.656Z,58.00
2019-03-21T07:04:48.406Z,63.80
2019-03-21T07:07:23.396Z,59.00
2019-03-21T07:09:57.051Z,58.70
2019-03-21T07:12:30.008Z,66.90
2019-03-21T07:15:04.451Z,68.20
2019-03-21T07:17:40.533Z,59.20
2019-03-21T07:20:19.174Z,64.70
2019-03-21T07:22:53.526Z,57.30
2019-03-21T07:25:27.063Z,57.60
2019-03-21T07:28:03.955Z,56.90
2019-03-21T07:30:38.571Z,56.40
2019-03-21T07:33:12.759Z,65.20
2019-03-21T07:35:46.170Z,56.10
2019-03-21T07:38:19.630Z,59.60
2019-03-21T07:40:57.645Z,55.30
2019-03-21T07:43:38.809Z,65.10
2019-03-21T07:46:13.694Z,55.30
2019-03-21T07:48:52.000Z,54.80
2019-03-21T07:51:26.813Z,54.40
2019-03-21T07:54:14.838Z,59.50
2019-03-21T07:56:48.041Z,56.50
2019-03-21T07:59:22.872Z,67.60
2019-03-21T08:01:55.676Z,69.10
2019-03-21T08:04:29.199Z,63.30
2019-03-21T08:07:04.397Z,59.20
2019-03-21T08:09:37.768Z,59.20
2019-03-21T08:12:11.111Z,60.40
2019-03-21T08:14:44.628Z,62.60
2019-03-21T08:17:18.517Z,67.60
2019-03-21T08:19:51.713Z,65.90
2019-03-21T08:22:24.935Z,75.30
2019-03-21T08:24:58.303Z,66.80
2019-03-21T08:27:35.438Z,67.20
2019-03-21T08:30:26.174Z,67.50
2019-03-21T08:33:00.029Z,69.70
2019-03-21T08:35:33.269Z,70.70
2019-03-21T08:38:08.388Z,71.60
2019-03-21T08:40:42.711Z,73.50
2019-03-21T08:43:16.681Z,78.20
2019-03-21T08:45:57.963Z,78.30
2019-03-21T08:48:34.961Z,78.60
2019-03-21T08:51:09.025Z,75.00
2019-03-21T08:53:43.205Z,75.50
2019-03-21T08:56:21.354Z,76.60
2019-03-21T08:58:54.700Z,80.00
2019-03-21T09:01:28.232Z,79.10
2019-03-21T09:04:02.786Z,78.00
2019-03-21T09:06:36.246Z,78.50
2019-03-21T09:09:10.917Z,79.30
2019-03-21T09:11:44.630Z,81.50
2019-03-21T09:14:18.197Z,79.60
2019-03-21T09:16:52.128Z,79.50
2019-03-21T09:19:27.463Z,79.60
2019-03-21T09:22:01.138Z,82.60
2019-03-21T09:24:36.310Z,81.10
2019-03-21T09:27:09.858Z,82.80
2019-03-21T09:29:53.068Z,82.50
2019-03-21T09:32:18.554Z,83.00
2019-03-21T09:35:02.255Z,82.90
2019-03-21T09:37:36.257Z,83.60
2019-03-21T09:40:12.058Z,84.30
2019-03-21T09:42:45.722Z,83.50
2019-03-21T09:45:19.539Z,83.40
2019-03-21T09:47:52.726Z,84.60
2019-03-21T09:50:30.826Z,84.10
2019-03-21T09:53:04.350Z,84.70
2019-03-21T09:55:37.630Z,86.00
2019-03-21T09:58:12.076Z,85.30
2019-03-21T10:00:46.835Z,86.50
2019-03-21T10:03:20.515Z,87.60
2019-03-21T10:05:54.665Z,86.90
2019-03-21T10:08:28.649Z,87.60
2019-03-21T10:11:02.809Z,88.20
2019-03-21T10:13:36.321Z,88.50
2019-03-21T10:16:10.465Z,89.00
2019-03-21T10:18:44.294Z,89.60
2019-03-21T10:21:18.040Z,90.00
2019-03-21T10:23:52.013Z,90.30
2019-03-21T10:26:25.906Z,90.50
2019-03-21T10:29:01.230Z,90.50
2019-03-21T10:31:35.301Z,90.60
2019-03-21T10:34:09.172Z,91.00
2019-03-21T10:36:45.149Z,90.40
2019-03-21T10:39:18.937Z,90.60
2019-03-21T10:41:53.729Z,90.50
2019-03-21T10:44:27.303Z,90.50
2019-03-21T10:47:02.055Z,90.50
2019-03-21T10:49:38.475Z,90.70
2019-03-21T10:52:13.628Z,90.60
2019-03-21T10:54:54.380Z,90.60
2019-03-21T10:57:27.762Z,90.80
2019-03-21T11:00:03.790Z,92.50
2019-03-21T11:02:38.199Z,90.90
2019-03-21T11:05:12.167Z,91.50
2019-03-21T11:07:47.591Z,91.60
2019-03-21T11:10:21.780Z,91.90
2019-03-21T11:12:55.135Z,93.20
2019-03-21T11:15:28.793Z,93.20
2019-03-21T11:18:03.384Z,91.20
2019-03-21T11:20:41.079Z,91.10
2019-03-21T11:23:14.475Z,92.90
2019-03-21T11:25:48.686Z,92.20
2019-03-21T11:28:28.394Z,91.50
2019-03-21T11:31:02.672Z,92.60
2019-03-21T11:33:35.952Z,91.10
2019-03-21T11:36:10.570Z,93.00
2019-03-21T11:38:44.403Z,91.10
2019-03-21T11:41:20.584Z,93.30
2019-03-21T11:43:55.072Z,91.30
2019-03-21T11:46:28.676Z,91.10
2019-03-21T11:49:01.976Z,92.60
2019-03-21T11:51:36.751Z,91.50
2019-03-21T11:54:17.068Z,93.60
2019-03-21T11:56:51.790Z,91.30
2019-03-21T11:59:41.363Z,91.70
2019-03-21T12:02:02.972Z,92.70
2019-03-21T12:04:36.493Z,91.30
2019-03-21T12:07:23.233Z,91.50
2019-03-21T12:10:09.165Z,94.60
2019-03-21T12:12:43.109Z,91.90
2019-03-21T12:15:16.693Z,92.00
2019-03-21T12:17:50.351Z,94.60
2019-03-21T12:20:36.006Z,91.80
2019-03-21T12:23:10.290Z,92.80
2019-03-21T12:25:44.241Z,91.80
2019-03-21T12:28:17.962Z,93.10
2019-03-21T12:30:54.495Z,93.90
2019-03-21T12:33:30.013Z,91.80
2019-03-21T12:36:04.043Z,93.40
2019-03-21T12:38:37.729Z,92.00
2019-03-21T12:41:14.759Z,92.80
2019-03-21T12:43:48.492Z,91.60
2019-03-21T12:46:22.439Z,94.00
2019-03-21T12:48:56.655Z,92.10
2019-03-21T12:51:30.667Z,92.20
2019-03-21T12:54:04.197Z,93.00
2019-03-21T12:56:37.546Z,94.30
2019-03-21T12:59:11.397Z,93.40
2019-03-21T13:01:45.029Z,92.90
2019-03-21T13:04:19.022Z,92.80
2019-03-21T13:06:53.760Z,92.70
2019-03-21T13:09:27.862Z,93.90
2019-03-21T13:12:01.724Z,95.40
2019-03-21T13:14:36.165Z,94.10
2019-03-21T13:17:10.698Z,93.10
2019-03-21T13:19:44.128Z,93.60
2019-03-21T13:22:18.219Z,94.90
2019-03-21T13:24:53.715Z,93.40
2019-03-21T13:27:27.483Z,94.80
2019-03-21T13:30:03.605Z,94.50
2019-03-21T13:32:38.028Z,93.40
2019-03-21T13:35:11.984Z,93.80
2019-03-21T13:37:46.071Z,93.70
2019-03-21T13:40:20.022Z,95.50
2019-03-21T13:42:54.709Z,94.00
2019-03-21T13:45:31.766Z,93.60
2019-03-21T13:48:05.327Z,93.70
2019-03-21T13:50:41.582Z,94.10
2019-03-21T13:53:18.858Z,93.80
2019-03-21T13:55:50.198Z,95.50
2019-03-21T13:58:23.634Z,94.10
2019-03-21T14:00:59.049Z,95.90
2019-03-21T14:03:32.683Z,94.20
2019-03-21T14:06:10.144Z,95.70
2019-03-21T14:08:46.786Z,95.40
2019-03-21T14:11:21.770Z,93.90
2019-03-21T14:13:56.806Z,93.90
2019-03-21T14:16:30.407Z,93.90
2019-03-21T14:19:04.892Z,94.00
2019-03-21T14:21:39.669Z,94.60
2019-03-21T14:24:13.340Z,94.30
2019-03-21T14:26:48.222Z,94.00
2019-03-21T14:29:24.273Z,94.00
2019-03-21T14:31:57.786Z,96.00
2019-03-21T14:34:33.789Z,94.70
2019-03-21T14:37:07.314Z,95.30
2019-03-21T14:39:43.246Z,94.30
2019-03-21T14:42:21.614Z,94.50
2019-03-21T14:44:55.462Z,94.90
2019-03-21T14:47:36.046Z,94.40
2019-03-21T14:50:04.204Z,94.30
2019-03-21T14:52:40.985Z,94.30
2019-03-21T14:55:19.590Z,94.70
2019-03-21T14:57:56.850Z,94.40
2019-03-21T15:00:30.639Z,94.30
2019-03-21T15:03:05.298Z,95.40
2019-03-21T15:05:38.751Z,94.10
2019-03-21T15:08:21.134Z,94.10
2019-03-21T15:10:54.927Z,94.30
2019-03-21T15:13:30.574Z,94.50
2019-03-21T15:16:06.316Z,94.40
2019-03-21T15:18:43.746Z,94.90
2019-03-21T15:21:18.633Z,95.50
2019-03-21T15:23:59.448Z,95.20
2019-03-21T15:26:30.015Z,94.90
2019-03-21T15:29:03.751Z,94.90
2019-03-21T15:31:39.417Z,95.50
2019-03-21T15:34:12.990Z,95.00
2019-03-21T15:36:48.748Z,95.10
2019-03-21T15:39:22.658Z,95.90
2019-03-21T15:41:56.134Z,95.60
2019-03-21T15:44:30.274Z,95.80
2019-03-21T15:47:04.337Z,95.10
2019-03-21T15:49:37.763Z,95.20
2019-03-21T15:52:11.693Z,95.40
2019-03-21T15:54:45.152Z,96.70
2019-03-21T15:57:19.016Z,96.00
2019-03-21T15:59:52.638Z,96.00
2019-03-21T16:02:26.357Z,96.30
2019-03-21T16:05:01.572Z,95.70
2019-03-21T16:07:35.654Z,96.10
2019-03-21T16:10:09.878Z,96.10
2019-03-21T16:12:43.446Z,95.80
2019-03-21T16:15:16.995Z,95.80
2019-03-21T16:17:50.709Z,95.90
2019-03-21T16:20:26.163Z,95.90
2019-03-21T16:22:59.396Z,95.80
2019-03-21T16:25:33.671Z,96.00
2019-03-21T16:28:10.526Z,95.80
2019-03-21T16:30:45.606Z,96.80
2019-03-21T16:33:23.588Z,95.90
2019-03-21T16:36:02.671Z,95.90
2019-03-21T16:38:46.708Z,95.80
2019-03-21T16:41:27.049Z,96.90
2019-03-21T16:44:04.470Z,96.00
2019-03-21T16:46:40.894Z,95.80
2019-03-21T16:49:15.169Z,95.80
2019-03-21T16:52:16.587Z,95.80
2019-03-21T16:54:53.147Z,96.50
2019-03-21T16:57:30.240Z,96.60
2019-03-21T17:00:04.813Z,96.30
2019-03-21T17:02:39.666Z,96.30
2019-03-21T17:05:13.881Z,96.70
2019-03-21T17:07:47.425Z,96.50
2019-03-21T17:10:40.488Z,96.40
2019-03-21T17:13:15.394Z,96.60
2019-03-21T17:15:50.014Z,96.30
2019-03-21T17:18:43.784Z,96.10
2019-03-21T17:21:18.963Z,96.40
2019-03-21T17:23:52.138Z,96.60
2019-03-21T17:26:35.889Z,96.20
2019-03-21T17:29:09.694Z,96.80
2019-03-21T17:31:57.149Z,96.20
2019-03-21T17:34:30.790Z,96.70
2019-03-21T17:37:05.116Z,96.50
2019-03-21T17:39:40.211Z,96.50
2019-03-21T17:42:13.684Z,96.30
2019-03-21T17:44:51.557Z,96.80
2019-03-21T17:47:26.054Z,96.60
2019-03-21T17:50:10.864Z,96.40
2019-03-21T17:52:55.526Z,96.40
2019-03-21T17:55:33.796Z,96.40
2019-03-21T17:58:07.688Z,96.30
2019-03-21T18:00:47.273Z,96.70
2019-03-21T18:03:21.251Z,96.00
2019-03-21T18:05:54.846Z,96.40
2019-03-21T18:08:29.729Z,96.20
2019-03-21T18:11:03.107Z,96.20
2019-03-21T18:13:36.895Z,96.40
2019-03-21T18:16:10.944Z,96.50
2019-03-21T18:18:45.118Z,96.60
2019-03-21T18:21:18.811Z,96.60
2019-03-21T18:23:53.338Z,97.10
2019-03-21T18:26:26.959Z,96.80
2019-03-21T18:29:01.153Z,97.20
2019-03-21T18:31:34.791Z,97.40
2019-03-21T18:34:10.149Z,97.40
2019-03-21T18:36:44.247Z,96.90
2019-03-21T18:39:18.175Z,97.20
2019-03-21T18:41:51.822Z,96.90
2019-03-21T18:44:25.718Z,97.20
2019-03-21T18:46:59.343Z,97.30
2019-03-21T18:49:33.560Z,97.10
2019-03-21T18:52:07.137Z,97.20
2019-03-21T18:54:41.206Z,97.40
2019-03-21T18:57:15.182Z,97.40
2019-03-21T18:59:49.275Z,97.40
2019-03-21T19:02:23.326Z,97.60
2019-03-21T19:05:05.702Z,97.40
2019-03-21T19:07:39.275Z,97.70
2019-03-21T19:10:14.993Z,98.10
2019-03-21T19:12:48.623Z,97.70
2019-03-21T19:15:28.505Z,98.00
2019-03-21T19:18:02.183Z,97.90
2019-03-21T19:20:36.339Z,97.70
2019-03-21T19:23:09.954Z,97.90
2019-03-21T19:25:43.873Z,97.70
2019-03-21T19:28:17.571Z,97.90
2019-03-21T19:30:51.795Z,97.80
2019-03-21T19:33:25.468Z,97.80
2019-03-21T19:35:58.986Z,97.80
2019-03-21T19:38:32.627Z,98.10
2019-03-21T19:41:06.326Z,98.00
2019-03-21T19:43:39.966Z,98.10
2019-03-21T19:46:13.857Z,97.90
2019-03-21T19:48:50.498Z,97.80
2019-03-21T19:51:24.632Z,97.80
2019-03-21T19:53:58.440Z,97.60
2019-03-21T19:56:32.353Z,97.70
2019-03-21T19:59:06.004Z,97.60
2019-03-21T20:01:39.914Z,97.70
2019-03-21T20:04:13.922Z,97.90
2019-03-21T20:06:48.092Z,97.90
2019-03-21T20:09:22.034Z,98.10
2019-03-21T20:11:56.131Z,97.70
2019-03-21T20:14:33.792Z,97.90
2019-03-21T20:17:07.450Z,98.00
2019-03-21T20:19:42.085Z,97.70
2019-03-21T20:22:16.020Z,97.90
2019-03-21T20:24:50.667Z,97.90
2019-03-21T20:27:24.674Z,97.80
2019-03-21T20:29:58.324Z,97.90
2019-03-21T20:32:32.721Z,97.80
2019-03-21T20:35:07.919Z,99.10
2019-03-21T20:37:42.141Z,99.20
2019-03-21T20:40:18.656Z,97.70
2019-03-21T20:42:52.797Z,97.60
2019-03-21T20:45:26.113Z,97.30
2019-03-21T20:47:59.923Z,97.40
2019-03-21T20:50:33.781Z,97.30
2019-03-21T20:53:07.846Z,97.80
2019-03-21T20:55:41.472Z,97.50
2019-03-21T20:58:15.445Z,97.50
2019-03-21T21:00:49.090Z,99.60
2019-03-21T21:03:23.866Z,97.40
2019-03-21T21:05:57.807Z,97.60
2019-03-21T21:08:31.239Z,99.00
2019-03-21T21:11:04.926Z,97.40
2019-03-21T21:13:39.024Z,97.60
2019-03-21T21:16:12.660Z,99.10
2019-03-21T21:18:52.290Z,97.40
2019-03-21T21:21:26.560Z,97.40
2019-03-21T21:24:00.467Z,97.30
2019-03-21T21:26:34.426Z,99.30
2019-03-21T21:29:08.006Z,97.50
2019-03-21T21:31:41.657Z,97.20
2019-03-21T21:34:15.544Z,97.30
2019-03-21T21:36:49.519Z,98.10
2019-03-21T21:39:24.652Z,97.30
2019-03-21T21:41:57.991Z,97.20
2019-03-21T21:44:32.243Z,97.10
2019-03-21T21:47:05.853Z,97.40
2019-03-21T21:49:40.059Z,97.10
2019-03-21T21:52:14.072Z,97.10
2019-03-21T21:54:49.224Z,97.10
2019-03-21T21:57:23.004Z,97.30
2019-03-21T21:59:56.928Z,97.10
2019-03-21T22:02:30.875Z,97.80
2019-03-21T22:05:04.717Z,97.30
2019-03-21T22:07:38.787Z,97.30
2019-03-21T22:10:15.029Z,97.30
2019-03-21T22:12:48.992Z,97.80
2019-03-21T22:15:22.264Z,98.80
2019-03-21T22:17:56.109Z,98.30
2019-03-21T22:20:29.955Z,97.60
2019-03-21T22:23:03.934Z,96.90
2019-03-21T22:25:37.177Z,97.80
2019-03-21T22:28:10.926Z,97.00
2019-03-21T22:30:44.390Z,96.80
2019-03-21T22:33:18.210Z,96.60
2019-03-21T22:35:52.259Z,96.60
2019-03-21T22:38:26.213Z,96.60
2019-03-21T22:41:00.083Z,96.70
2019-03-21T22:43:33.770Z,96.50
2019-03-21T22:46:07.642Z,96.40
2019-03-21T22:48:41.868Z,96.80
2019-03-21T22:51:15.737Z,96.50
2019-03-21T22:53:49.831Z,96.50
2019-03-21T22:56:23.746Z,96.70
2019-03-21T22:58:57.330Z,96.70
2019-03-21T23:01:30.944Z,96.50
2019-03-21T23:04:04.738Z,96.50
2019-03-21T23:06:38.483Z,96.50
2019-03-21T23:09:12.432Z,96.70
2019-03-21T23:11:46.170Z,96.80
2019-03-21T23:14:20.171Z,96.90
2019-03-21T23:16:54.199Z,97.30
2019-03-21T23:19:28.103Z,97.30
2019-03-21T23:22:02.861Z,97.00
2019-03-21T23:24:36.631Z,97.80
2019-03-21T23:27:10.707Z,99.60
2019-03-21T23:29:44.508Z,97.30
2019-03-21T23:32:18.382Z,96.70
2019-03-21T23:34:52.103Z,97.10
2019-03-21T23:37:26.294Z,96.90
2019-03-21T23:40:00.736Z,96.60
2019-03-21T23:42:34.426Z,96.60
2019-03-21T23:45:09.519Z,96.50
2019-03-21T23:47:52.168Z,96.60
2019-03-21T23:50:25.519Z,96.70
2019-03-21T23:52:59.786Z,96.70
2019-03-21T23:55:35.389Z,96.60
2019-03-21T23:58:11.496Z,96.60
